Latest Weather Observations for Orange Airport

IDN60801

Issued at 7:42 pm EST Wednesday 12 August 2020 (issued every 10 minutes, with the page automatically refreshed every 10 minutes)

About weather observations | Map of weather stations | Latest weather observations for NSW | Other Formats
Station Details ID: 063303 Name: ORANGE AIRPORT AWS Lat: -33.38 Lon: 149.13 Height: 944.65 m
Data from the previous 72 hours. | See also: Recent months at Orange Airport
Date/Time
EST
Temp
°C
App
Temp
°C
Dew
Point
°C
Rel
Hum
%
Delta-T
°C
Wind Press
QNH
hPa
Press
MSL
hPa
Rain since
9am
mm
Dir  Spd
km/h
Gust
km/h
Spd
kts
Gust
kts
12/07:30pm 6.2 4.1 5.6 96 0.3 NNW 6 7 3 4 1013.9 1014.6 0.6
12/07:00pm 7.0 5.0 6.3 95 0.3 NNW 6 7 3 4 1013.6 1014.2 0.6
12/06:30pm 8.3 6.3 6.9 91 0.7 NNW 7 9 4 5 1013.3 1014.0 0.6
12/06:00pm 9.0 6.3 7.3 89 0.8 NNW 11 13 6 7 1013.0 1013.7 0.6
12/05:30pm 9.6 6.1 7.0 84 1.3 NNW 15 17 8 9 1012.8 1013.4 0.6
12/05:00pm 10.1 7.2 8.0 87 1.1 NNW 13 17 7 9 1012.8 1013.4 0.6
12/04:30pm 11.4 9.0 8.8 84 1.4 NW 11 15 6 8 1012.7 1013.3 0.6
12/04:00pm 11.1 7.4 7.8 80 1.7 NW 17 22 9 12 1012.7 1013.3 0.4
12/03:30pm 11.6 7.4 7.3 75 2.2 NNW 19 24 10 13 1012.6 1013.2 0.4
12/03:00pm 11.9 7.5 7.2 73 2.4 NNW 20 26 11 14 1012.7 1013.3 0.4
12/02:30pm 11.2 6.1 6.1 71 2.5 NNW 22 30 12 16 1012.7 1013.3 0.4
12/02:00pm 11.7 6.1 5.3 65 3.1 NNW 24 30 13 16 1012.9 1013.6 0.4
12/01:30pm 11.9 7.2 7.6 75 2.2 NNW 22 28 12 15 1013.1 1013.8 0.4
12/01:00pm 11.6 6.7 7.1 74 2.3 N 22 28 12 15 1013.4 1014.1 0.4
12/12:30pm 11.7 7.0 7.8 77 2.0 N 22 32 12 17 1014.0 1014.7 0.4
12/12:00pm 10.7 5.4 6.8 77 1.9 NNW 24 30 13 16 1014.7 1015.3 0.4
12/11:39am 10.4 6.4 6.7 78 1.8 NNW 17 24 9 13 1015.0 1015.7 0.4
12/11:30am 10.6 6.2 7.3 80 1.7 NNW 20 26 11 14 1015.2 1015.9 0.4
12/11:25am 10.3 5.8 7.0 80 1.6 N 20 26 11 14 1015.3 1016.0 0.4
12/11:00am 9.2 4.7 6.8 85 1.2 N 20 28 11 15 1015.9 1016.6 0.4
12/10:30am 8.5 4.6 7.1 91 0.7 NNW 17 26 9 14 1016.4 1017.1 0.4
12/10:00am 8.9 4.4 6.9 87 1.0 NNW 20 26 11 14 1016.8 1017.6 0.0
12/09:30am 9.2 5.2 6.6 84 1.3 NNW 17 22 9 12 1017.0 1017.7 0.0
12/09:00am 8.7 4.3 6.7 87 1.0 NNW 19 26 10 14 1017.1 1017.8 0.0
12/08:30am 7.7 3.5 5.8 88 0.9 N 17 22 9 12 1016.8 1017.6 0.0
12/08:00am 6.9 3.0 5.5 91 0.7 N 15 19 8 10 1017.0 1017.7 0.0
12/07:30am 6.5 2.2 5.1 91 0.7 N 17 19 9 10 1017.0 1017.7 0.0
12/07:00am 5.8 1.3 4.4 91 0.6 N 17 20 9 11 1016.8 1017.6 0.0
12/06:30am 5.8 1.3 4.4 91 0.6 N 17 20 9 11 1016.4 1017.1 0.0
12/06:00am 5.7 0.8 4.3 91 0.6 N 19 22 10 12 1016.1 1016.8 0.0
12/05:30am 5.7 1.2 4.3 91 0.6 N 17 20 9 11 1016.0 1016.7 0.0
12/05:00am 5.3 1.6 4.3 93 0.5 N 13 17 7 9 1015.9 1016.6 0.0
12/04:30am 5.2 1.1 4.2 93 0.5 N 15 19 8 10 1016.0 1016.7 0.0
12/04:00am 4.9 0.7 4.0 94 0.4 N 15 17 8 9 1016.2 1016.9 0.0
12/03:30am 5.1 1.7 4.2 94 0.4 N 11 13 6 7 1016.2 1016.9 0.0
12/03:00am 5.3 1.6 4.3 93 0.5 N 13 17 7 9 1016.5 1017.3 0.0
12/02:30am 5.1 1.4 4.4 95 0.3 NNE 13 15 7 8 1016.4 1017.1 0.0
12/02:00am 4.8 1.0 3.9 94 0.4 NE 13 15 7 8 1016.6 1017.4 0.0
12/01:30am 5.2 2.6 4.0 92 0.5 ENE 7 9 4 5 1017.0 1017.7 0.0
12/01:00am 5.7 3.1 4.2 90 0.7 NE 7 9 4 5 1017.2 1017.9 0.0
12/12:30am 6.1 2.0 4.6 90 0.7 NE 15 17 8 9 1017.3 1018.0 0.0
12/12:00am 5.8 1.7 4.4 91 0.6 NNE 15 17 8 9 1017.7 1018.5 0.0
 
Date/Time
EST
Temp
°C
App
Temp
°C
Dew
Point
°C
Rel
Hum
%
Delta-T
°C
Wind Press
QNH
hPa
Press
MSL
hPa
Rain since
9am
mm
Dir  Spd
km/h
Gust
km/h
Spd
kts
Gust
kts
11/11:30pm 5.9 0.9 4.7 92 0.6 N 20 24 11 13 1017.9 1018.7 0.0
11/11:00pm 5.9 1.5 5.0 94 0.4 N 17 20 9 11 1018.1 1018.8 0.0
11/10:30pm 5.0 1.3 4.3 95 0.3 NNE 13 15 7 8 1017.6 1018.4 0.0
11/10:00pm 5.3 1.6 4.6 95 0.3 N 13 15 7 8 1017.8 1018.6 0.0
11/09:30pm 4.6 1.2 3.9 95 0.3 N 11 11 6 6 1017.9 1018.7 0.0
11/09:00pm 5.0 2.3 3.8 92 0.5 ENE 7 9 4 5 1017.6 1018.4 0.0
11/08:30pm 5.0 2.0 4.0 93 0.4 ENE 9 13 5 7 1017.4 1018.1 0.0
11/08:00pm 5.3 2.4 4.6 95 0.3 E 9 15 5 8 1017.5 1018.3 0.0
11/07:30pm 5.3 4.0 4.3 93 0.5 CALM 0 0 0 0 1018.2 1018.9 0.0
11/07:00pm 5.1 2.1 4.1 93 0.4 WNW 9 13 5 7 1019.1 1019.9 0.0
11/06:30pm 5.1 2.0 3.4 89 0.8 W 9 13 5 7 1018.7 1019.5 0.0
11/06:00pm 5.8 2.7 3.6 86 1.0 WNW 9 9 5 5 1018.5 1019.3 0.0
11/05:30pm 7.4 4.9 4.0 79 1.6 N 6 9 3 5 1017.9 1018.7 0.0
11/05:00pm 8.5 5.4 3.4 70 2.3 N 9 13 5 7 1017.7 1018.5 0.0
11/04:30pm 9.9 8.0 5.1 72 2.3 NNW 4 9 2 5 1017.4 1018.1 0.0
11/04:00pm 10.6 7.4 4.9 68 2.7 NNW 11 15 6 8 1017.6 1018.4 0.0
11/03:30pm 10.6 7.3 4.3 65 3.0 NW 11 15 6 8 1017.8 1018.6 0.0
11/03:00pm 11.7 8.2 5.6 66 3.0 NW 13 17 7 9 1018.1 1018.8 0.0
11/02:30pm 11.5 8.8 5.4 66 3.0 WNW 9 15 5 8 1018.2 1018.9 0.0
11/02:00pm 11.1 8.6 3.9 61 3.4 NE 6 13 3 7 1018.4 1019.2 0.0
11/01:30pm 10.4 6.6 3.7 63 3.1 N 13 19 7 10 1018.5 1019.3 0.0
11/01:00pm 10.2 6.7 3.5 63 3.1 N 11 17 6 9 1019.1 1019.9 0.0
11/12:30pm 9.6 5.3 3.1 64 3.0 N 15 20 8 11 1019.6 1020.4 0.0
11/12:00pm 9.2 5.8 3.8 69 2.5 N 11 20 6 11 1020.1 1021.0 0.0
11/11:30am 8.8 5.0 4.0 72 2.2 NNE 13 17 7 9 1020.5 1021.3 0.0
11/11:00am 7.8 4.0 3.7 75 1.9 NNE 13 20 7 11 1020.8 1021.6 0.0
11/10:30am 7.3 3.3 3.0 74 1.9 NNE 13 19 7 10 1020.7 1021.5 0.0
11/10:00am 6.2 2.2 2.7 78 1.5 NNE 13 17 7 9 1021.2 1022.1 0.0
11/09:34am 4.8 0.7 2.3 84 1.1 NNE 13 20 7 11 1021.6 1022.4 0.0
11/09:30am 4.7 0.2 2.4 85 1.0 N 15 20 8 11 1021.7 1022.5 0.0
11/09:00am 4.1 0.1 2.6 90 0.6 NW 13 15 7 8 1021.9 1022.7 0.0
11/08:30am 3.8 -0.3 2.3 90 0.6 NNE 13 17 7 9 1021.4 1022.3 0.0
11/08:00am 3.4 -0.7 2.4 93 0.4 ENE 13 19 7 10 1020.6 1021.4 0.0
11/07:30am 3.1 -1.4 2.4 95 0.3 ENE 15 20 8 11 1020.4 1021.2 0.0
11/07:00am 2.7 -2.6 2.1 96 0.2 ENE 19 24 10 13 1020.0 1020.8 0.0
11/06:48am 2.2 -2.0 1.5 95 0.3 ENE 13 20 7 11 1019.9 1020.7 0.0
11/06:30am 1.7 -2.3 0.5 92 0.5 ENE 11 15 6 8 1019.8 1020.6 0.0
11/06:13am 1.9 -2.1 0.6 91 0.5 ENE 11 15 6 8 1019.8 1020.6 0.0
11/06:00am 2.3 -1.6 1.0 91 0.5 ENE 11 15 6 8 1019.8 1020.6 0.0
11/05:30am 2.1 -1.5 0.6 90 0.6 NE 9 13 5 7 1019.9 1020.7 0.0
11/05:28am 2.1 -1.5 0.5 89 0.6 NE 9 11 5 6 1019.9 1020.7 0.0
11/05:00am 2.3 -1.7 0.4 87 0.8 ENE 11 15 6 8 1019.8 1020.6 0.0
11/04:30am 2.9 -1.8 0.8 86 0.8 E 15 22 8 12 1019.8 1020.6 0.0
11/04:00am 2.9 -1.8 0.8 86 0.8 E 15 19 8 10 1020.1 1021.0 0.0
11/03:30am 2.8 -1.2 0.4 84 1.0 E 11 17 6 9 1020.4 1021.2 0.0
11/03:00am 3.7 -1.0 1.1 83 1.1 E 15 22 8 12 1020.4 1021.2 0.0
11/02:30am 4.1 -0.2 1.0 80 1.3 E 13 20 7 11 1020.7 1021.5 0.0
11/02:00am 4.5 1.4 1.2 79 1.4 NE 7 9 4 5 1021.0 1021.8 0.0
11/01:30am 4.8 1.7 1.5 79 1.4 ENE 7 13 4 7 1021.2 1022.1 0.0
11/01:00am 5.1 1.3 1.6 78 1.5 ENE 11 17 6 9 1021.4 1022.3 0.0
11/12:30am 4.6 1.1 1.5 80 1.3 E 9 15 5 8 1021.2 1022.1 0.0
11/12:00am 4.6 1.1 1.5 80 1.3 ENE 9 17 5 9 1021.0 1021.8 0.0
 
Date/Time
EST
Temp
°C
App
Temp
°C
Dew
Point
°C
Rel
Hum
%
Delta-T
°C
Wind Press
QNH
hPa
Press
MSL
hPa
Rain since
9am
mm
Dir  Spd
km/h
Gust
km/h
Spd
kts
Gust
kts
10/11:30pm 4.6 1.1 1.3 79 1.4 E 9 11 5 6 1021.1 1022.0 0.0
10/11:00pm 4.7 2.2 1.7 81 1.3 ESE 4 7 2 4 1021.2 1022.1 0.0
10/10:30pm 4.3 1.2 1.3 81 1.2 E 7 13 4 7 1021.1 1022.0 0.0
10/10:00pm 4.5 1.9 1.0 78 1.4 E 4 7 2 4 1021.1 1022.0 0.0
10/09:30pm 4.4 1.3 1.1 79 1.4 ESE 7 11 4 6 1020.9 1021.7 0.0
10/09:00pm 5.2 1.0 1.7 78 1.5 ESE 13 17 7 9 1021.0 1021.8 0.0
10/08:30pm 6.0 1.1 1.9 75 1.8 ESE 17 20 9 11 1021.1 1022.0 0.0
10/08:00pm 5.7 0.3 2.5 80 1.4 SE 20 26 11 14 1020.9 1021.7 0.0
10/07:30pm 6.2 1.1 2.8 79 1.5 SSE 19 24 10 13 1020.9 1021.7 0.0
10/07:00pm 6.4 1.7 3.4 81 1.3 SE 17 22 9 12 1020.7 1021.5 0.0
10/06:30pm 6.6 2.7 3.6 81 1.3 SSE 13 17 7 9 1020.0 1020.8 0.0
10/06:00pm 7.0 3.1 3.4 78 1.6 SSW 13 15 7 8 1019.7 1020.5 0.0
10/05:30pm 7.3 3.4 3.4 76 1.8 S 13 15 7 8 1019.3 1020.1 0.0
10/05:00pm 7.9 2.8 3.2 72 2.1 SE 19 24 10 13 1018.6 1019.4 0.0
10/04:30pm 7.9 2.6 2.8 70 2.3 SE 20 24 11 13 1018.4 1019.2 0.0
10/04:00pm 9.1 3.5 3.3 67 2.6 SE 22 32 12 17 1018.3 1019.0 0.0
10/03:30pm 9.5 3.5 3.5 66 2.8 SE 24 30 13 16 1018.1 1018.8 0.0
10/03:00pm 9.4 1.7 3.4 66 2.7 SE 33 41 18 22 1017.9 1018.7 0.0
10/02:30pm 9.2 1.7 3.6 68 2.6 SE 32 41 17 22 1018.1 1018.8 0.0
10/02:00pm 10.2 2.8 4.1 66 2.9 SE 32 43 17 23 1017.9 1018.7 0.0
10/01:30pm 10.0 2.7 4.6 69 2.6 SSE 32 41 17 22 1017.7 1018.5 0.0
10/01:00pm 9.9 2.3 5.9 76 1.9 SSE 35 46 19 25 1017.6 1018.4 0.0
10/12:30pm 10.5 2.9 5.9 73 2.2 SE 35 48 19 26 1017.6 1018.4 0.0
10/12:00pm 9.3 -0.2 3.7 68 2.6 SE 43 54 23 29 1017.8 1018.6 0.0
10/11:30am 9.2 0.3 5.0 75 2.0 SE 41 54 22 29 1017.9 1018.7 0.0
10/11:15am 8.3 0.3 3.8 73 2.1 SSE 35 54 19 29 1018.3 1019.0 0.0
10/11:00am 9.3 2.2 5.3 76 1.9 SSE 32 41 17 22 1018.3 1019.0 0.0
10/10:30am 8.6 0.7 4.4 75 2.0 SE 35 50 19 27 1018.1 1018.8 0.0
10/10:00am 8.5 1.4 5.6 82 1.4 SSE 32 41 17 22 1017.9 1018.7 0.0
10/09:44am 7.0 0.3 3.6 79 1.5 SSE 28 46 15 25 1017.9 1018.7 0.0
10/09:30am 7.2 0.6 4.0 80 1.5 SSE 28 37 15 20 1017.7 1018.5 0.0
10/09:00am 6.8 -1.1 4.1 83 1.2 SE 35 46 19 25 1017.3 1018.0 4.8
10/08:30am 6.5 -1.5 4.0 84 1.1 SSE 35 46 19 25 1017.0 1017.7 4.8
10/08:00am 6.5 -0.9 4.2 85 1.0 SSE 32 43 17 23 1016.4 1017.1 4.8
10/07:30am 6.3 0.5 4.3 87 0.9 S 24 33 13 18 1016.1 1016.8 4.8
10/07:00am 6.1 -0.6 3.9 86 1.0 S 28 37 15 20 1015.4 1016.1 4.8
10/06:44am 6.2 -1.2 4.2 87 0.9 S 32 43 17 23 1014.8 1015.5 4.8
10/06:30am 6.4 -1.5 4.4 87 0.9 SSE 35 48 19 26 1014.7 1015.3 4.8
10/06:00am 6.3 0.2 4.9 91 0.6 S 26 37 14 20 1014.2 1014.9 4.8
10/05:52am 6.5 0.5 5.1 91 0.7 SSE 26 39 14 21 1014.0 1014.7 4.8
10/05:30am 6.4 0.4 5.2 92 0.6 SSE 26 33 14 18 1013.6 1014.2 4.8
10/05:00am 6.2 0.6 5.2 93 0.5 SSE 24 35 13 19 1013.1 1013.8 4.8
10/04:58am 6.3 0.7 5.3 93 0.5 SSE 24 35 13 19 1013.0 1013.7 4.8
10/04:30am 6.1 -0.6 5.4 95 0.3 SSE 30 39 16 21 1012.7 1013.3 4.8
10/04:14am 6.3 -0.5 5.1 92 0.6 SSE 30 37 16 20 1012.6 1013.2 4.8
10/04:00am 6.2 0.2 5.3 94 0.4 S 26 33 14 18 1012.2 1012.9 4.8
10/03:59am 6.1 0.5 5.4 95 0.3 S 24 33 13 18 1012.2 1012.9 4.8
10/03:30am 5.4 -0.3 5.0 97 0.2 SSE 24 33 13 18 1011.8 1012.4 4.8
10/03:00am 5.3 -0.4 4.9 97 0.2 SSE 24 30 13 16 1011.6 1012.2 4.8
10/02:30am 5.3 -1.1 5.0 98 0.1 SSE 28 37 15 20 1011.7 1012.3 4.8
10/02:00am 5.6 -1.7 5.5 99 0.0 S 33 46 18 25 1011.6 1012.2 4.8
10/01:30am 5.4 -1.0 5.3 99 0.0 S 28 35 15 19 1011.6 1012.2 4.8
10/01:07am 5.3 -1.1 5.2 99 0.0 SSW 28 37 15 20 1011.6 1012.2 4.8
10/01:00am 5.1 -1.0 5.0 99 0.0 SSW 26 35 14 19 1011.6 1012.2 4.8
10/12:30am 5.0 -1.5 4.9 99 0.0 SSW 28 35 15 19 1011.4 1012.0 4.6
10/12:28am 5.0 -1.5 4.9 99 0.0 SSW 28 35 15 19 1011.4 1012.0 4.6
10/12:00am 5.1 -1.3 5.0 99 0.0 SSW 28 35 15 19 1011.1 1011.8 4.6
 
Date/Time
EST
Temp
°C
App
Temp
°C
Dew
Point
°C
Rel
Hum
%
Delta-T
°C
Wind Press
QNH
hPa
Press
MSL
hPa
Rain since
9am
mm
Dir  Spd
km/h
Gust
km/h
Spd
kts
Gust
kts
09/11:58pm 5.1 -1.7 5.0 99 0.0 SSW 30 39 16 21 1011.1 1011.8 4.6
09/11:30pm 5.0 -1.5 4.9 99 0.0 SSW 28 41 15 22 1011.1 1011.8 4.4
09/11:00pm 4.6 -2.3 4.5 99 0.0 SSW 30 43 16 23 1011.1 1011.8 4.4
09/10:30pm 4.5 -3.0 4.4 99 0.0 SSW 33 43 18 23 1011.0 1011.6 4.2
09/10:00pm 4.3 -2.7 4.2 99 0.0 SW 30 43 16 23 1011.0 1011.6 4.0
09/09:30pm 3.9 -3.2 3.8 99 0.0 SW 30 37 16 20 1011.3 1011.9 3.8
09/09:13pm 3.9 -2.4 3.8 99 0.0 SW 26 35 14 19 1011.4 1012.0 3.6
09/09:00pm 3.9 -2.8 3.8 99 0.0 SW 28 35 15 19 1011.5 1012.1 3.6
09/08:49pm 3.8 -2.5 3.7 99 0.0 SW 26 33 14 18 1011.5 1012.1 3.6
09/08:30pm 3.5 -2.5 3.4 99 0.0 SW 24 32 13 17 1011.3 1011.9 3.6
09/08:00pm 3.4 -2.6 3.3 99 0.0 SW 24 30 13 16 1011.5 1012.1 3.6

Other formats

Comma delimited format used in spreadsheet applications
http://www.bom.gov.au/fwo/IDN60801/IDN60801.95726.axf

JavaScript Object Notation format (JSON) in row-major order
http://www.bom.gov.au/fwo/IDN60801/IDN60801.95726.json

Data quality

Most of these data are generated automatically and are frequently updated. Quality checks on data are not normally performed. It is possible for incorrect values to appear. Refer to information at About Latest Weather Observations and please check the disclaimer before using these data.